Time;durP1;ratioP1;P1;durP2;ratioP2;P2;SDS_P1;SDS_P2;PMS_P1;PMS_P2;Temp;Humidity;BMP_temperature;BMP_pressure;BME280_temperature;BME280_humidity;BME280_pressure;Samples;Min_cycle;Max_cycle;Signal;HPM_P1;HPM_P2
2022/11/23 00:01:31;;;;;;;12.20;6.95;;;;;;;;;;4957764;28;20034;-74
2022/11/23 00:03:59;;;;;;;9.50;7.38;;;;;;;;;;4985322;28;20477;-74
2022/11/23 00:06:25;;;;;;;8.20;6.72;;;;;;;;;;4953319;28;20445;-74
2022/11/23 00:08:53;;;;;;;6.55;5.80;;;;;;;;;;4952475;28;20572;-74
2022/11/23 00:11:20;;;;;;;10.85;7.57;;;;;;;;;;4956463;28;20113;-74
2022/11/23 00:13:46;;;;;;;8.43;7.03;;;;;;;;;;4956882;28;20397;-74
2022/11/23 00:16:16;;;;;;;9.50;7.85;;;;;;;;;;4957322;28;20222;-74
2022/11/23 00:18:42;;;;;;;9.02;6.97;;;;;;;;;;4951292;28;20055;-74
2022/11/23 00:21:10;;;;;;;8.93;6.45;;;;;;;;;;4952730;28;20035;-74
2022/11/23 00:23:38;;;;;;;10.32;7.18;;;;;;;;;;4957457;28;20038;-74
2022/11/23 00:26:04;;;;;;;10.85;8.57;;;;;;;;;;4954307;28;20780;-74
2022/11/23 00:28:36;;;;;;;9.90;6.90;;;;;;;;;;4958641;28;20039;-74
2022/11/23 00:31:01;;;;;;;9.82;7.68;;;;;;;;;;4986929;28;20270;-74
2022/11/23 00:33:27;;;;;;;12.13;7.43;;;;;;;;;;4955234;28;20050;-74
2022/11/23 00:36:01;;;;;;;10.65;8.60;;;;;;;;;;4950190;28;20034;-74
2022/11/23 00:38:32;;;;;;;7.65;6.65;;;;;;;;;;4956259;28;20030;-74
2022/11/23 00:41:03;;;;;;;8.30;6.20;;;;;;;;;;4966990;28;20031;-74
2022/11/23 00:43:29;;;;;;;11.45;8.23;;;;;;;;;;4970938;28;20097;-75
2022/11/23 00:46:08;;;;;;;11.63;7.82;;;;;;;;;;4939401;28;21610;-75
2022/11/23 00:48:36;;;;;;;9.90;8.90;;;;;;;;;;4977994;28;20042;-75
2022/11/23 00:51:04;;;;;;;10.82;8.63;;;;;;;;;;4986805;28;20050;-74
2022/11/23 00:53:30;;;;;;;15.13;8.48;;;;;;;;;;4967988;28;20101;-74
2022/11/23 00:55:56;;;;;;;8.40;7.63;;;;;;;;;;4969340;28;20033;-74
2022/11/23 00:58:23;;;;;;;9.63;8.30;;;;;;;;;;4969936;28;20514;-75
2022/11/23 01:00:58;;;;;;;10.20;7.97;;;;;;;;;;4973240;28;20493;-74
2022/11/23 01:03:24;;;;;;;11.27;7.88;;;;;;;;;;4974068;28;20035;-75
2022/11/23 01:05:50;;;;;;;8.55;7.38;;;;;;;;;;4973550;28;20090;-74
2022/11/23 01:08:16;;;;;;;8.25;6.85;;;;;;;;;;4961038;28;20034;-74
2022/11/23 01:10:44;;;;;;;7.43;6.50;;;;;;;;;;4967541;28;20103;-74
2022/11/23 01:13:10;;;;;;;13.32;6.97;;;;;;;;;;4992031;28;20514;-74
2022/11/23 01:15:36;;;;;;;11.02;7.60;;;;;;;;;;4961894;28;20031;-74
2022/11/23 01:18:04;;;;;;;12.52;6.75;;;;;;;;;;4991589;23;20050;-71
2022/11/23 01:20:30;;;;;;;7.20;6.50;;;;;;;;;;4979599;28;20326;-71
2022/11/23 01:22:56;;;;;;;12.75;9.00;;;;;;;;;;4947112;28;20244;-71
2022/11/23 01:25:27;;;;;;;7.28;6.57;;;;;;;;;;4977843;28;20113;-71
2022/11/23 01:27:53;;;;;;;6.05;5.47;;;;;;;;;;4993479;28;20063;-74
2022/11/23 01:30:20;;;;;;;6.75;5.53;;;;;;;;;;4982241;28;20033;-71
2022/11/23 01:32:46;;;;;;;8.10;6.78;;;;;;;;;;4982938;28;20504;-72
2022/11/23 01:35:16;;;;;;;10.05;6.72;;;;;;;;;;4995782;28;20684;-72
2022/11/23 01:37:44;;;;;;;7.53;6.72;;;;;;;;;;4997068;28;20675;-72
2022/11/23 01:40:12;;;;;;;7.57;6.38;;;;;;;;;;4994906;28;20070;-71
2022/11/23 01:42:50;;;;;;;11.13;6.50;;;;;;;;;;4981572;28;20041;-71
2022/11/23 01:45:35;;;;;;;9.65;6.20;;;;;;;;;;4982658;28;20037;-71
2022/11/23 01:48:04;;;;;;;7.18;6.00;;;;;;;;;;4996572;28;20045;-74
2022/11/23 01:50:30;;;;;;;9.07;6.60;;;;;;;;;;4979912;28;20049;-74
2022/11/23 01:52:56;;;;;;;7.70;5.93;;;;;;;;;;4997204;28;20096;-74
2022/11/23 01:55:25;;;;;;;9.52;5.63;;;;;;;;;;4981101;28;20480;-74
2022/11/23 01:57:51;;;;;;;12.40;5.57;;;;;;;;;;4980400;28;20033;-74
2022/11/23 02:00:20;;;;;;;7.95;5.57;;;;;;;;;;4979645;28;20416;-74
2022/11/23 02:02:54;;;;;;;8.57;7.10;;;;;;;;;;4983728;28;20026;-74
2022/11/23 02:05:21;;;;;;;6.60;5.90;;;;;;;;;;4978938;28;20030;-74
2022/11/23 02:07:52;;;;;;;6.90;5.05;;;;;;;;;;4995344;28;20025;-74
2022/11/23 02:10:18;;;;;;;7.10;6.35;;;;;;;;;;4995424;28;20045;-74
2022/11/23 02:12:44;;;;;;;11.93;6.22;;;;;;;;;;4981135;28;20293;-74
2022/11/23 02:15:11;;;;;;;11.80;7.70;;;;;;;;;;4992973;28;20030;-74
2022/11/23 02:17:37;;;;;;;14.95;6.57;;;;;;;;;;4980608;28;20031;-73
2022/11/23 02:20:07;;;;;;;9.88;8.68;;;;;;;;;;4979982;28;20033;-74
2022/11/23 02:22:51;;;;;;;12.48;6.85;;;;;;;;;;4998392;28;20026;-74
2022/11/23 02:25:42;;;;;;;8.90;7.72;;;;;;;;;;4993715;28;20472;-74
2022/11/23 02:28:12;;;;;;;7.50;5.38;;;;;;;;;;4961791;28;20396;-74
2022/11/23 02:30:38;;;;;;;10.63;6.95;;;;;;;;;;4965761;28;20497;-74
2022/11/23 02:33:05;;;;;;;7.47;6.43;;;;;;;;;;4980113;28;20098;-74
2022/11/23 02:35:31;;;;;;;8.50;5.95;;;;;;;;;;4997113;28;20041;-74
2022/11/23 02:37:59;;;;;;;8.68;6.72;;;;;;;;;;4987398;28;20500;-74
2022/11/23 02:40:35;;;;;;;15.73;6.28;;;;;;;;;;4985395;28;20036;-74
2022/11/23 02:43:01;;;;;;;8.57;6.78;;;;;;;;;;4982895;28;20049;-74
2022/11/23 02:45:33;;;;;;;10.65;7.05;;;;;;;;;;4980489;28;20503;-74
2022/11/23 02:48:03;;;;;;;;;;;;;;;;;;4979241;28;20514;-74
2022/11/23 02:50:33;;;;;;;10.57;6.10;;;;;;;;;;4992727;28;20492;-71
2022/11/23 02:52:59;;;;;;;20.38;6.38;;;;;;;;;;4983631;28;20045;-74
2022/11/23 02:55:25;;;;;;;7.72;6.43;;;;;;;;;;4984754;28;20152;-74
2022/11/23 02:57:53;;;;;;;6.55;5.85;;;;;;;;;;4980762;28;20036;-71
2022/11/23 03:00:21;;;;;;;9.73;7.90;;;;;;;;;;5000949;28;20416;-71
2022/11/23 03:02:47;;;;;;;7.57;5.78;;;;;;;;;;4964649;28;20400;-71
2022/11/23 03:05:13;;;;;;;7.43;6.03;;;;;;;;;;4981111;28;20096;-71
2022/11/23 03:07:42;;;;;;;8.23;6.22;;;;;;;;;;4979482;28;20601;-71
2022/11/23 03:10:10;;;;;;;7.20;6.13;;;;;;;;;;4978843;28;20022;-74
2022/11/23 03:12:39;;;;;;;8.13;6.03;;;;;;;;;;4995239;28;20506;-71
2022/11/23 03:15:07;;;;;;;24.17;5.75;;;;;;;;;;4979665;28;20029;-74
2022/11/23 03:17:36;;;;;;;7.22;5.90;;;;;;;;;;4984601;28;20041;-74
2022/11/23 03:20:02;;;;;;;7.70;6.25;;;;;;;;;;4983733;28;20048;-71
2022/11/23 03:22:36;;;;;;;9.80;6.22;;;;;;;;;;5003274;28;20034;-74
2022/11/23 03:25:02;;;;;;;10.93;6.53;;;;;;;;;;4986983;28;20048;-74
2022/11/23 03:27:32;;;;;;;7.43;5.95;;;;;;;;;;4988564;28;20038;-74
2022/11/23 03:29:58;;;;;;;15.07;7.07;;;;;;;;;;4982019;28;20729;-74
2022/11/23 03:32:27;;;;;;;11.30;6.97;;;;;;;;;;4983073;28;20034;-73
2022/11/23 03:34:53;;;;;;;8.20;5.35;;;;;;;;;;4966880;28;20034;-73
2022/11/23 03:37:23;;;;;;;7.85;5.72;;;;;;;;;;4987692;28;20025;-74
2022/11/23 03:39:51;;;;;;;16.60;5.80;;;;;;;;;;4969873;28;20034;-74
2022/11/23 03:42:40;;;;;;;8.90;6.97;;;;;;;;;;4999622;28;20423;-74
2022/11/23 03:45:07;;;;;;;7.85;6.72;;;;;;;;;;4987123;28;20030;-71
2022/11/23 03:47:35;;;;;;;8.18;6.55;;;;;;;;;;4987523;28;20041;-71
2022/11/23 03:50:01;;;;;;;7.15;5.97;;;;;;;;;;4988584;28;20041;-71
2022/11/23 03:52:32;;;;;;;7.00;6.32;;;;;;;;;;4968291;28;20029;-71
2022/11/23 03:55:01;;;;;;;8.77;5.85;;;;;;;;;;4970560;28;20042;-71
2022/11/23 03:57:29;;;;;;;7.72;5.90;;;;;;;;;;4979932;28;20499;-71
2022/11/23 03:59:57;;;;;;;9.18;6.43;;;;;;;;;;4982940;28;20038;-71
2022/11/23 04:02:23;;;;;;;11.88;6.28;;;;;;;;;;4984353;28;20037;-73
2022/11/23 04:05:00;;;;;;;7.28;5.15;;;;;;;;;;4986685;28;20030;-74
2022/11/23 04:07:49;;;;;;;5.65;4.93;;;;;;;;;;4980451;28;20050;-74
2022/11/23 04:10:18;;;;;;;6.90;5.78;;;;;;;;;;4982985;28;20037;-71
2022/11/23 04:13:10;;;;;;;8.35;6.10;;;;;;;;;;4997687;28;20046;-71
2022/11/23 04:15:36;;;;;;;8.02;5.90;;;;;;;;;;4997072;28;20036;-71
2022/11/23 04:18:05;;;;;;;6.45;5.47;;;;;;;;;;4966988;28;20044;-71
2022/11/23 04:20:31;;;;;;;6.78;4.82;;;;;;;;;;4977556;28;21692;-71
2022/11/23 04:23:00;;;;;;;10.07;5.35;;;;;;;;;;4979836;28;20398;-74
2022/11/23 04:25:27;;;;;;;9.50;6.38;;;;;;;;;;4978880;28;21578;-71
2022/11/23 04:28:00;;;;;;;6.47;5.82;;;;;;;;;;4988979;28;20522;-72
2022/11/23 04:30:26;;;;;;;9.05;6.07;;;;;;;;;;4961073;28;20136;-71
2022/11/23 04:32:54;;;;;;;6.45;5.75;;;;;;;;;;4964156;28;20041;-71
2022/11/23 04:35:21;;;;;;;7.65;5.28;;;;;;;;;;4965588;28;20034;-71
2022/11/23 04:37:52;;;;;;;9.23;6.55;;;;;;;;;;4985240;28;20022;-72
2022/11/23 04:40:19;;;;;;;5.53;4.82;;;;;;;;;;4995877;28;20518;-74
2022/11/23 04:43:01;;;;;;;5.70;4.93;;;;;;;;;;4983938;28;20041;-71
2022/11/23 04:45:30;;;;;;;6.18;5.22;;;;;;;;;;4985751;28;20034;-71
2022/11/23 04:48:06;;;;;;;7.28;4.95;;;;;;;;;;4979347;28;20037;-74
2022/11/23 04:50:34;;;;;;;9.20;5.47;;;;;;;;;;4961733;28;20036;-72
2022/11/23 04:53:06;;;;;;;8.32;5.85;;;;;;;;;;4963833;28;20026;-71
2022/11/23 04:55:40;;;;;;;7.75;4.25;;;;;;;;;;4977568;28;20357;-71
2022/11/23 04:58:08;;;;;;;9.40;5.22;;;;;;;;;;4979589;28;20037;-72
2022/11/23 05:00:35;;;;;;;6.45;5.13;;;;;;;;;;4978210;28;20022;-72
2022/11/23 05:03:03;;;;;;;8.40;5.65;;;;;;;;;;4977410;28;20038;-72
2022/11/23 05:05:31;;;;;;;8.05;6.22;;;;;;;;;;4979298;28;20041;-72
2022/11/23 05:08:00;;;;;;;8.80;5.97;;;;;;;;;;4977969;28;20507;-72
2022/11/23 05:10:39;;;;;;;7.53;4.53;;;;;;;;;;4963582;28;20044;-72
2022/11/23 05:13:07;;;;;;;7.50;5.65;;;;;;;;;;4965097;28;20112;-73
2022/11/23 05:15:38;;;;;;;5.75;4.65;;;;;;;;;;4986388;28;20052;-73
2022/11/23 05:18:05;;;;;;;7.60;5.07;;;;;;;;;;4970804;28;20056;-73
2022/11/23 05:20:32;;;;;;;8.95;5.15;;;;;;;;;;4994989;28;20487;-72
2022/11/23 05:23:04;;;;;;;9.63;6.28;;;;;;;;;;4964341;28;20068;-73
2022/11/23 05:25:36;;;;;;;16.55;6.72;;;;;;;;;;4975398;28;20106;-72
2022/11/23 05:28:13;;;;;;;9.15;5.93;;;;;;;;;;4960195;28;20029;-72
2022/11/23 05:30:40;;;;;;;8.98;5.78;;;;;;;;;;4977507;28;20033;-73
2022/11/23 05:33:07;;;;;;;8.82;6.75;;;;;;;;;;4990170;28;20034;-73
2022/11/23 05:35:34;;;;;;;8.50;6.07;;;;;;;;;;4980802;28;20034;-73
2022/11/23 05:38:05;;;;;;;8.95;6.20;;;;;;;;;;4980985;28;20480;-73
2022/11/23 05:40:32;;;;;;;6.95;5.10;;;;;;;;;;4975321;28;20041;-72
2022/11/23 05:43:04;;;;;;;8.38;7.55;;;;;;;;;;4981966;28;20534;-72
2022/11/23 05:45:34;;;;;;;7.80;6.28;;;;;;;;;;4977687;28;20053;-72
2022/11/23 05:48:00;;;;;;;10.48;6.57;;;;;;;;;;4999262;28;20038;-72
2022/11/23 05:50:53;;;;;;;7.15;5.57;;;;;;;;;;4994101;28;20053;-72
2022/11/23 05:53:24;;;;;;;5.95;5.28;;;;;;;;;;4966708;28;20026;-73
2022/11/23 05:56:02;;;;;;;8.77;5.72;;;;;;;;;;4969994;28;20092;-72
2022/11/23 05:58:31;;;;;;;6.95;5.18;;;;;;;;;;4989541;28;20037;-73
2022/11/23 06:01:03;;;;;;;5.88;4.60;;;;;;;;;;4988618;28;20030;-72
2022/11/23 06:03:33;;;;;;;5.13;3.70;;;;;;;;;;4996577;28;20026;-73
2022/11/23 06:05:59;;;;;;;17.38;6.68;;;;;;;;;;4975132;28;20037;-72
2022/11/23 06:08:30;;;;;;;6.93;6.05;;;;;;;;;;4981330;28;20038;-73
2022/11/23 06:11:01;;;;;;;7.38;6.65;;;;;;;;;;4972310;28;20041;-74
2022/11/23 06:13:27;;;;;;;6.00;5.22;;;;;;;;;;4967940;28;20782;-74
2022/11/23 06:15:53;;;;;;;9.68;5.60;;;;;;;;;;4990975;28;20499;-73
2022/11/23 06:18:24;;;;;;;7.18;5.07;;;;;;;;;;4971756;28;20042;-73
2022/11/23 06:20:57;;;;;;;7.75;5.00;;;;;;;;;;4986958;28;20026;-73
2022/11/23 06:23:23;;;;;;;8.55;5.65;;;;;;;;;;4988219;28;20033;-73
2022/11/23 06:25:52;;;;;;;7.30;5.00;;;;;;;;;;4952417;28;22143;-74
2022/11/23 06:28:21;;;;;;;5.93;4.72;;;;;;;;;;4983187;28;20037;-73
2022/11/23 06:30:51;;;;;;;5.47;5.00;;;;;;;;;;4968299;28;20048;-74
2022/11/23 06:33:17;;;;;;;6.18;5.32;;;;;;;;;;4972425;28;20030;-73
2022/11/23 06:35:54;;;;;;;8.50;5.07;;;;;;;;;;4984828;28;20029;-73
2022/11/23 06:38:22;;;;;;;;;;;;;;;;;;4962016;28;20038;-74
2022/11/23 06:40:58;;;;;;;20.88;10.82;;;;;;;;;;4982532;28;19918;-73
2022/11/23 06:43:27;;;;;;;10.68;8.77;;;;;;;;;;4959563;28;20034;-73
2022/11/23 06:45:54;;;;;;;6.75;5.00;;;;;;;;;;4970230;28;20045;-73
2022/11/23 06:48:22;;;;;;;6.40;5.10;;;;;;;;;;4967549;28;20936;-73
2022/11/23 06:50:54;;;;;;;5.30;4.80;;;;;;;;;;4994231;28;20029;-74
2022/11/23 06:53:23;;;;;;;10.30;6.85;;;;;;;;;;4971680;28;20050;-74
2022/11/23 06:55:57;;;;;;;15.20;9.02;;;;;;;;;;4987036;28;20022;-73
2022/11/23 06:58:26;;;;;;;14.18;11.13;;;;;;;;;;5002994;28;20030;-73
2022/11/23 07:01:00;;;;;;;12.18;9.02;;;;;;;;;;4975023;28;20040;-73
2022/11/23 07:03:30;;;;;;;10.70;7.30;;;;;;;;;;4986474;28;20034;-73
2022/11/23 07:06:07;;;;;;;7.03;5.38;;;;;;;;;;4982606;28;20492;-74
2022/11/23 07:08:42;;;;;;;7.55;6.18;;;;;;;;;;4990350;28;20392;-73
2022/11/23 07:11:23;;;;;;;8.45;7.03;;;;;;;;;;4969951;28;20097;-73
2022/11/23 07:13:49;;;;;;;9.38;6.28;;;;;;;;;;4998079;28;20034;-74
2022/11/23 07:16:14;;;;;;;6.97;5.50;;;;;;;;;;4973756;28;20029;-73
2022/11/23 07:18:43;;;;;;;15.60;11.65;;;;;;;;;;4994648;23;20053;-84
2022/11/23 07:21:09;;;;;;;18.45;13.57;;;;;;;;;;4984386;28;20491;-83
2022/11/23 07:23:39;;;;;;;17.08;12.77;;;;;;;;;;4990053;28;20044;-83
2022/11/23 07:26:06;;;;;;;23.13;12.50;;;;;;;;;;5010610;28;20026;-83
2022/11/23 07:28:32;;;;;;;11.93;9.55;;;;;;;;;;4984542;28;20034;-84
2022/11/23 07:30:58;;;;;;;7.50;6.80;;;;;;;;;;4989072;28;20396;-83
2022/11/23 07:33:24;;;;;;;11.38;9.18;;;;;;;;;;4959246;28;20675;-83
2022/11/23 07:35:50;;;;;;;10.05;7.38;;;;;;;;;;4986222;28;20030;-84
2022/11/23 07:38:16;;;;;;;8.43;6.07;;;;;;;;;;4988974;28;20050;-83
2022/11/23 07:40:42;;;;;;;10.88;6.72;;;;;;;;;;4955997;28;20396;-84
2022/11/23 07:43:19;;;;;;;5.30;4.40;;;;;;;;;;4967908;28;20038;-84
2022/11/23 07:45:48;;;;;;;5.57;4.93;;;;;;;;;;4987330;28;20038;-83
2022/11/23 07:48:15;;;;;;;3.20;2.92;;;;;;;;;;4971236;28;20488;-83
2022/11/23 07:50:41;;;;;;;7.03;6.05;;;;;;;;;;4992537;28;20034;-84
2022/11/23 07:53:09;;;;;;;5.10;3.55;;;;;;;;;;4937746;28;20038;-83
2022/11/23 07:55:34;;;;;;;6.20;4.47;;;;;;;;;;4990646;28;20027;-83
2022/11/23 07:58:01;;;;;;;10.40;6.55;;;;;;;;;;4987752;28;20081;-83
2022/11/23 08:00:28;;;;;;;4.63;3.70;;;;;;;;;;4987525;28;20042;-83
2022/11/23 08:02:55;;;;;;;12.90;8.13;;;;;;;;;;4976957;28;20092;-84
2022/11/23 08:05:21;;;;;;;6.72;4.78;;;;;;;;;;4974884;28;20034;-84
2022/11/23 08:07:48;;;;;;;8.98;4.32;;;;;;;;;;4997505;28;20056;-83
2022/11/23 08:10:14;;;;;;;9.18;6.22;;;;;;;;;;4978535;28;20042;-84
2022/11/23 08:12:40;;;;;;;12.65;6.60;;;;;;;;;;4976861;28;20026;-84
2022/11/23 08:15:06;;;;;;;4.47;3.28;;;;;;;;;;4969886;28;20026;-84
2022/11/23 08:17:32;;;;;;;10.32;7.82;;;;;;;;;;4988420;28;20034;-84
2022/11/23 08:19:58;;;;;;;10.35;6.40;;;;;;;;;;4988617;28;20038;-84
2022/11/23 08:22:25;;;;;;;9.10;6.97;;;;;;;;;;4963880;28;20673;-84
2022/11/23 08:24:51;;;;;;;9.18;7.88;;;;;;;;;;4985065;28;20043;-84
2022/11/23 08:27:17;;;;;;;14.40;8.73;;;;;;;;;;4994011;28;20121;-84
2022/11/23 08:29:43;;;;;;;9.18;7.43;;;;;;;;;;4997891;28;20030;-83
2022/11/23 08:32:10;;;;;;;8.48;6.93;;;;;;;;;;4982528;28;20026;-84
2022/11/23 08:34:36;;;;;;;10.63;8.57;;;;;;;;;;4987888;28;20037;-84
2022/11/23 08:37:01;;;;;;;11.27;7.60;;;;;;;;;;4987144;28;20617;-83
2022/11/23 08:39:27;;;;;;;7.20;4.13;;;;;;;;;;4998431;28;20575;-83
2022/11/23 08:41:53;;;;;;;5.82;3.60;;;;;;;;;;4954799;28;20038;-83
2022/11/23 08:44:19;;;;;;;4.40;3.35;;;;;;;;;;4989459;28;20399;-83
2022/11/23 08:46:45;;;;;;;7.15;3.80;;;;;;;;;;4970248;28;20027;-83
2022/11/23 08:49:11;;;;;;;4.22;3.22;;;;;;;;;;4984681;28;20526;-83
2022/11/23 08:51:37;;;;;;;5.95;2.78;;;;;;;;;;4988142;28;20030;-83
2022/11/23 08:54:03;;;;;;;7.35;3.65;;;;;;;;;;4993234;28;20030;-84
2022/11/23 08:56:29;;;;;;;4.63;2.75;;;;;;;;;;4980918;28;20018;-83
2022/11/23 08:58:54;;;;;;;6.80;2.90;;;;;;;;;;4986212;28;20038;-84
2022/11/23 09:01:20;;;;;;;5.70;3.42;;;;;;;;;;4991081;28;20037;-84
2022/11/23 09:03:46;;;;;;;3.40;3.10;;;;;;;;;;4974719;28;20034;-84
2022/11/23 09:06:12;;;;;;;2.83;2.30;;;;;;;;;;4983160;28;20046;-83
2022/11/23 09:08:38;;;;;;;5.82;2.92;;;;;;;;;;4977632;28;20037;-83
2022/11/23 09:11:05;;;;;;;2.72;2.47;;;;;;;;;;4970871;28;20511;-82
2022/11/23 09:13:33;;;;;;;3.03;1.92;;;;;;;;;;4973312;28;20032;-83
2022/11/23 09:15:59;;;;;;;4.60;2.67;;;;;;;;;;5001796;28;20030;-83
2022/11/23 09:18:26;;;;;;;4.72;2.50;;;;;;;;;;5009205;28;20030;-84
2022/11/23 09:20:52;;;;;;;5.28;3.35;;;;;;;;;;4995932;28;20026;-84
2022/11/23 09:23:18;;;;;;;9.07;3.15;;;;;;;;;;4998428;28;20031;-84
2022/11/23 09:25:47;;;;;;;8.95;3.35;;;;;;;;;;4989140;28;20037;-83
2022/11/23 09:28:13;;;;;;;5.18;2.83;;;;;;;;;;4997075;28;20025;-83
2022/11/23 09:30:40;;;;;;;9.18;3.13;;;;;;;;;;5010062;28;20237;-83
2022/11/23 09:33:07;;;;;;;5.00;2.58;;;;;;;;;;4985022;28;20366;-83
2022/11/23 09:35:33;;;;;;;4.45;3.63;;;;;;;;;;4980806;28;20064;-83
2022/11/23 09:37:59;;;;;;;9.32;3.45;;;;;;;;;;4988647;28;20034;-84
2022/11/23 09:40:38;;;;;;;7.88;3.47;;;;;;;;;;4968580;28;20045;-86
2022/11/23 09:43:23;;;;;;;7.55;3.40;;;;;;;;;;4990471;28;20030;-84
2022/11/23 09:45:50;;;;;;;4.45;3.35;;;;;;;;;;4992003;28;20037;-84
2022/11/23 09:48:38;;;;;;;11.05;6.47;;;;;;;;;;4989755;28;20507;-84
2022/11/23 09:51:10;;;;;;;6.75;3.60;;;;;;;;;;4986531;28;20027;-85
2022/11/23 09:53:55;;;;;;;3.03;2.00;;;;;;;;;;4972610;28;20405;-84
2022/11/23 09:56:24;;;;;;;4.57;3.63;;;;;;;;;;4996868;28;20030;-86
2022/11/23 09:58:54;;;;;;;14.63;2.85;;;;;;;;;;4986581;28;20519;-84
2022/11/23 10:01:20;;;;;;;5.35;2.70;;;;;;;;;;4975546;28;20500;-84
2022/11/23 10:03:46;;;;;;;8.02;3.70;;;;;;;;;;4989162;28;20026;-84
2022/11/23 10:06:17;;;;;;;4.10;2.17;;;;;;;;;;4990393;28;20054;-84
2022/11/23 10:08:44;;;;;;;8.40;3.85;;;;;;;;;;4973584;28;20026;-84
2022/11/23 10:11:13;;;;;;;3.65;2.58;;;;;;;;;;4982496;28;20510;-85
2022/11/23 10:13:44;;;;;;;6.05;3.15;;;;;;;;;;4994715;28;20326;-85
2022/11/23 10:16:21;;;;;;;4.32;2.42;;;;;;;;;;4960424;28;20038;-84
2022/11/23 10:19:04;;;;;;;5.90;2.78;;;;;;;;;;4990731;28;20031;-85
2022/11/23 10:21:40;;;;;;;3.42;2.65;;;;;;;;;;4991421;28;20042;-84
2022/11/23 10:24:12;;;;;;;5.25;2.85;;;;;;;;;;4989195;28;20030;-85
2022/11/23 10:26:40;;;;;;;4.03;2.28;;;;;;;;;;4980390;28;20033;-85
2022/11/23 10:29:10;;;;;;;6.10;3.20;;;;;;;;;;4989278;28;20026;-84
2022/11/23 10:31:36;;;;;;;6.57;2.00;;;;;;;;;;4983883;28;20031;-84
2022/11/23 10:34:31;;;;;;;4.97;2.45;;;;;;;;;;4988456;28;20037;-84
2022/11/23 10:36:57;;;;;;;4.05;2.55;;;;;;;;;;4991163;28;20053;-85
2022/11/23 10:39:26;;;;;;;2.58;2.20;;;;;;;;;;4992636;28;20030;-85
2022/11/23 10:41:53;;;;;;;6.28;3.33;;;;;;;;;;4991911;28;20034;-86
2022/11/23 10:44:25;;;;;;;3.92;2.63;;;;;;;;;;4987219;28;20042;-85
2022/11/23 10:46:51;;;;;;;6.10;3.88;;;;;;;;;;4989140;28;20038;-85
2022/11/23 10:49:24;;;;;;;4.93;2.47;;;;;;;;;;4975693;28;20046;-85
2022/11/23 10:51:54;;;;;;;7.80;3.20;;;;;;;;;;4987364;28;20073;-85
2022/11/23 10:54:52;;;;;;;8.75;3.67;;;;;;;;;;4984642;28;20026;-85
2022/11/23 10:57:20;;;;;;;4.50;3.05;;;;;;;;;;4986300;28;20400;-85
2022/11/23 10:59:58;;;;;;;8.45;5.55;;;;;;;;;;4974865;28;20042;-85
2022/11/23 11:02:24;;;;;;;7.30;4.25;;;;;;;;;;4973222;28;20041;-85
2022/11/23 11:04:50;;;;;;;6.03;3.42;;;;;;;;;;4990614;28;20397;-84
2022/11/23 11:07:29;;;;;;;7.80;3.30;;;;;;;;;;4990524;28;20488;-83
2022/11/23 11:09:57;;;;;;;4.50;3.13;;;;;;;;;;4989122;28;20357;-83
2022/11/23 11:12:23;;;;;;;3.83;3.47;;;;;;;;;;4990690;28;20487;-84
2022/11/23 11:15:02;;;;;;;5.25;2.42;;;;;;;;;;4996836;28;20397;-84
2022/11/23 11:17:43;;;;;;;4.60;2.80;;;;;;;;;;4972630;28;20030;-84
2022/11/23 11:20:28;;;;;;;5.68;3.38;;;;;;;;;;4987876;28;20042;-83
2022/11/23 11:23:17;;;;;;;8.95;4.38;;;;;;;;;;4988547;28;20034;-85
2022/11/23 11:26:09;;;;;;;5.10;3.10;;;;;;;;;;4997142;28;20034;-85
2022/11/23 11:29:13;;;;;;;4.60;2.47;;;;;;;;;;4986046;28;20519;-85
2022/11/23 11:31:50;;;;;;;4.47;3.38;;;;;;;;;;4992505;28;20041;-86
2022/11/23 11:34:21;;;;;;;4.78;3.38;;;;;;;;;;4992891;28;20030;-86
2022/11/23 11:37:16;;;;;;;5.18;3.03;;;;;;;;;;4964140;28;20037;-85
2022/11/23 11:40:20;;;;;;;5.50;2.28;;;;;;;;;;4963947;28;20061;-85
2022/11/23 11:43:20;;;;;;;5.68;4.30;;;;;;;;;;4972359;28;20041;-85
2022/11/23 11:45:59;;;;;;;8.70;2.60;;;;;;;;;;4986010;28;20054;-85
2022/11/23 11:48:43;;;;;;;3.38;2.83;;;;;;;;;;4989428;28;20042;-85
2022/11/23 11:51:23;;;;;;;7.88;2.20;;;;;;;;;;4979585;28;20037;-85
2022/11/23 11:54:11;;;;;;;3.65;2.70;;;;;;;;;;4980266;28;20026;-85
2022/11/23 11:56:43;;;;;;;4.55;2.65;;;;;;;;;;4986524;28;20034;-84
2022/11/23 11:59:15;;;;;;;8.43;2.88;;;;;;;;;;4987005;28;20035;-86
2022/11/23 12:01:44;;;;;;;10.07;3.42;;;;;;;;;;4966729;28;20053;-86
2022/11/23 12:04:20;;;;;;;4.32;1.75;;;;;;;;;;4985798;28;20049;-86
2022/11/23 12:06:58;;;;;;;5.38;2.90;;;;;;;;;;4988274;28;20389;-86
2022/11/23 12:09:29;;;;;;;5.50;3.08;;;;;;;;;;4986391;28;20050;-86
2022/11/23 12:11:57;;;;;;;7.30;2.58;;;;;;;;;;4982561;28;20026;-86
2022/11/23 12:14:23;;;;;;;4.68;2.38;;;;;;;;;;4988217;28;20035;-85
2022/11/23 12:16:59;;;;;;;4.95;2.13;;;;;;;;;;4984844;28;20042;-86
2022/11/23 12:19:28;;;;;;;8.40;3.17;;;;;;;;;;4974765;28;20034;-85
2022/11/23 12:22:00;;;;;;;5.53;1.80;;;;;;;;;;4973258;28;20061;-85
2022/11/23 12:24:38;;;;;;;2.45;1.50;;;;;;;;;;4971405;28;20034;-85
2022/11/23 12:27:05;;;;;;;6.57;2.55;;;;;;;;;;4986155;28;20031;-85
2022/11/23 12:29:34;;;;;;;6.60;1.80;;;;;;;;;;4975626;28;20030;-85
2022/11/23 12:32:25;;;;;;;7.68;3.92;;;;;;;;;;4991385;28;20592;-85
2022/11/23 12:35:11;;;;;;;5.10;1.90;;;;;;;;;;4983911;28;20039;-85
2022/11/23 12:37:40;;;;;;;6.18;1.63;;;;;;;;;;4975223;28;20401;-85
2022/11/23 12:40:15;;;;;;;5.22;1.50;;;;;;;;;;4986792;28;20056;-85
2022/11/23 12:42:43;;;;;;;7.45;1.60;;;;;;;;;;4988443;28;20586;-85
2022/11/23 12:45:16;;;;;;;4.28;2.50;;;;;;;;;;4975122;28;20038;-85
2022/11/23 12:48:03;;;;;;;6.75;1.60;;;;;;;;;;4987946;28;20423;-85
2022/11/23 12:50:37;;;;;;;5.25;1.85;;;;;;;;;;4980806;28;20045;-84
2022/11/23 12:53:19;;;;;;;4.28;1.52;;;;;;;;;;4968525;28;20026;-84
2022/11/23 12:55:50;;;;;;;3.05;1.70;;;;;;;;;;4992505;28;20053;-84
2022/11/23 12:58:24;;;;;;;3.03;1.45;;;;;;;;;;4977336;28;20035;-85
2022/11/23 13:01:10;;;;;;;4.35;2.35;;;;;;;;;;4991154;28;20041;-85
2022/11/23 13:03:47;;;;;;;2.15;1.25;;;;;;;;;;4986339;28;20034;-86
2022/11/23 13:06:30;;;;;;;3.25;2.20;;;;;;;;;;4986911;28;20524;-86
2022/11/23 13:09:12;;;;;;;7.63;1.88;;;;;;;;;;4993920;28;20030;-86
2022/11/23 13:11:44;;;;;;;1.95;1.50;;;;;;;;;;4993628;28;20026;-86
2022/11/23 13:14:25;;;;;;;2.13;1.38;;;;;;;;;;4992208;28;20030;-85
2022/11/23 13:17:09;;;;;;;3.22;1.65;;;;;;;;;;4994607;28;20027;-85
2022/11/23 13:19:47;;;;;;;3.30;1.45;;;;;;;;;;5029815;22;20045;-74
2022/11/23 13:22:18;;;;;;;2.13;1.27;;;;;;;;;;4978915;28;20038;-75
2022/11/23 13:24:59;;;;;;;3.22;1.30;;;;;;;;;;4993569;28;20029;-74
2022/11/23 13:27:27;;;;;;;2.50;1.50;;;;;;;;;;5004449;28;20049;-76
2022/11/23 13:29:59;;;;;;;3.28;1.52;;;;;;;;;;4979954;28;20046;-75
2022/11/23 13:32:34;;;;;;;6.63;1.75;;;;;;;;;;4971381;28;20035;-75
2022/11/23 13:35:00;;;;;;;2.47;1.45;;;;;;;;;;4989860;28;20030;-75
2022/11/23 13:37:26;;;;;;;5.38;1.60;;;;;;;;;;4992787;28;20038;-75
2022/11/23 13:39:56;;;;;;;2.40;1.13;;;;;;;;;;4968394;28;20034;-75
2022/11/23 13:42:25;;;;;;;2.08;1.58;;;;;;;;;;4975576;28;20045;-76
2022/11/23 13:45:10;;;;;;;2.08;1.15;;;;;;;;;;4994177;28;20045;-76
2022/11/23 13:47:36;;;;;;;1.83;1.00;;;;;;;;;;4995399;28;20038;-76
2022/11/23 13:50:07;;;;;;;2.10;1.20;;;;;;;;;;4978514;28;20030;-76
2022/11/23 13:52:35;;;;;;;1.77;1.65;;;;;;;;;;4982187;28;20038;-75
2022/11/23 13:55:10;;;;;;;3.08;1.00;;;;;;;;;;4976050;28;20026;-76
2022/11/23 13:57:39;;;;;;;5.55;1.77;;;;;;;;;;4976324;28;20030;-76
2022/11/23 14:00:24;;;;;;;2.70;1.50;;;;;;;;;;4983528;28;20030;-76
2022/11/23 14:03:14;;;;;;;2.55;1.45;;;;;;;;;;4979502;28;20034;-75
2022/11/23 14:05:49;;;;;;;8.68;1.58;;;;;;;;;;4990120;28;20033;-75
2022/11/23 14:08:16;;;;;;;8.73;2.03;;;;;;;;;;4998636;28;20062;-76
2022/11/23 14:10:44;;;;;;;2.65;1.70;;;;;;;;;;4988625;28;20038;-75
2022/11/23 14:13:15;;;;;;;3.47;1.45;;;;;;;;;;4978707;28;20473;-75
2022/11/23 14:15:44;;;;;;;2.92;1.65;;;;;;;;;;4984014;28;20476;-76
2022/11/23 14:18:16;;;;;;;3.83;1.33;;;;;;;;;;4941999;28;20042;-75
2022/11/23 14:21:11;;;;;;;2.30;1.30;;;;;;;;;;4958548;28;20621;-76
2022/11/23 14:23:58;;;;;;;2.75;1.70;;;;;;;;;;4976720;28;20524;-75
2022/11/23 14:26:34;;;;;;;2.80;2.10;;;;;;;;;;4957414;28;20034;-76
2022/11/23 14:29:02;;;;;;;2.75;1.27;;;;;;;;;;4941463;28;20042;-76
2022/11/23 14:31:44;;;;;;;1.73;1.33;;;;;;;;;;4974113;28;20385;-76
2022/11/23 14:34:31;;;;;;;4.25;1.77;;;;;;;;;;4944586;28;20030;-76
2022/11/23 14:37:02;;;;;;;5.75;2.22;;;;;;;;;;4975281;28;20057;-76
2022/11/23 14:39:28;;;;;;;6.57;2.00;;;;;;;;;;4979061;28;20034;-75
2022/11/23 14:41:55;;;;;;;5.97;1.77;;;;;;;;;;4950103;28;20041;-75
2022/11/23 14:44:27;;;;;;;2.17;1.98;;;;;;;;;;4974928;28;20053;-75
2022/11/23 14:47:01;;;;;;;3.30;1.77;;;;;;;;;;4979085;28;20030;-75
2022/11/23 14:49:27;;;;;;;1.13;0.95;;;;;;;;;;4958150;28;20034;-75
2022/11/23 14:51:53;;;;;;;2.60;2.05;;;;;;;;;;4960971;28;20579;-75
2022/11/23 14:54:19;;;;;;;2.30;1.67;;;;;;;;;;4957143;28;20046;-75
2022/11/23 14:56:46;;;;;;;5.97;1.92;;;;;;;;;;4979299;28;20061;-75
2022/11/23 14:59:37;;;;;;;4.90;2.30;;;;;;;;;;4957657;28;20030;-75
2022/11/23 15:02:08;;;;;;;2.10;1.23;;;;;;;;;;4958571;28;20042;-75
2022/11/23 15:04:44;;;;;;;1.10;1.00;;;;;;;;;;4939022;28;20034;-75